sensor_id;sensor_type;location;lat;lon;timestamp;temperature;humidity
326;DHT22;150;52.352;14.058;2023-06-10T00:02:13;19.00;34.90
326;DHT22;150;52.352;14.058;2023-06-10T00:04:42;18.90;35.40
326;DHT22;150;52.352;14.058;2023-06-10T00:07:09;18.90;35.70
326;DHT22;150;52.352;14.058;2023-06-10T00:09:44;19.00;36.10
326;DHT22;150;52.352;14.058;2023-06-10T00:12:17;19.10;35.70
326;DHT22;150;52.352;14.058;2023-06-10T00:14:45;19.00;34.90
326;DHT22;150;52.352;14.058;2023-06-10T00:17:19;18.90;35.50
326;DHT22;150;52.352;14.058;2023-06-10T00:19:46;18.90;35.90
326;DHT22;150;52.352;14.058;2023-06-10T00:22:12;18.80;35.80
326;DHT22;150;52.352;14.058;2023-06-10T00:24:39;18.90;36.10
326;DHT22;150;52.352;14.058;2023-06-10T00:27:07;18.90;35.80
326;DHT22;150;52.352;14.058;2023-06-10T00:29:35;18.90;35.80
326;DHT22;150;52.352;14.058;2023-06-10T00:32:02;18.90;35.80
326;DHT22;150;52.352;14.058;2023-06-10T00:34:29;18.90;35.80
326;DHT22;150;52.352;14.058;2023-06-10T00:36:56;18.80;35.90
326;DHT22;150;52.352;14.058;2023-06-10T00:39:23;18.80;35.90
326;DHT22;150;52.352;14.058;2023-06-10T00:41:49;18.60;36.50
326;DHT22;150;52.352;14.058;2023-06-10T00:44:16;18.60;37.00
326;DHT22;150;52.352;14.058;2023-06-10T00:46:45;18.60;36.80
326;DHT22;150;52.352;14.058;2023-06-10T00:49:21;18.50;37.40
326;DHT22;150;52.352;14.058;2023-06-10T00:51:47;18.50;37.00
326;DHT22;150;52.352;14.058;2023-06-10T00:54:15;18.60;37.20
326;DHT22;150;52.352;14.058;2023-06-10T00:56:42;18.50;37.00
326;DHT22;150;52.352;14.058;2023-06-10T00:59:09;18.40;37.60
326;DHT22;150;52.352;14.058;2023-06-10T01:01:35;18.30;38.20
326;DHT22;150;52.352;14.058;2023-06-10T01:04:04;18.30;38.40
326;DHT22;150;52.352;14.058;2023-06-10T01:06:36;18.20;38.80
326;DHT22;150;52.352;14.058;2023-06-10T01:09:18;18.10;39.60
326;DHT22;150;52.352;14.058;2023-06-10T01:11:49;18.10;39.60
326;DHT22;150;52.352;14.058;2023-06-10T01:14:18;18.00;39.50
326;DHT22;150;52.352;14.058;2023-06-10T01:16:46;18.10;39.60
326;DHT22;150;52.352;14.058;2023-06-10T01:19:15;18.10;39.60
326;DHT22;150;52.352;14.058;2023-06-10T01:21:44;18.20;39.30
326;DHT22;150;52.352;14.058;2023-06-10T01:24:14;18.10;39.60
326;DHT22;150;52.352;14.058;2023-06-10T01:26:44;18.10;39.60
326;DHT22;150;52.352;14.058;2023-06-10T01:29:17;18.20;39.70
326;DHT22;150;52.352;14.058;2023-06-10T01:31:49;18.10;39.60
326;DHT22;150;52.352;14.058;2023-06-10T01:34:18;18.10;39.60
326;DHT22;150;52.352;14.058;2023-06-10T01:37:15;18.10;39.60
326;DHT22;150;52.352;14.058;2023-06-10T01:39:45;18.10;39.60
326;DHT22;150;52.352;14.058;2023-06-10T01:42:13;18.00;39.50
326;DHT22;150;52.352;14.058;2023-06-10T01:44:40;17.90;39.70
326;DHT22;150;52.352;14.058;2023-06-10T01:47:07;17.80;40.20
326;DHT22;150;52.352;14.058;2023-06-10T01:49:55;17.90;40.30
326;DHT22;150;52.352;14.058;2023-06-10T01:55:56;17.90;39.90
326;DHT22;150;52.352;14.058;2023-06-10T01:58:23;17.90;40.00
326;DHT22;150;52.352;14.058;2023-06-10T02:00:50;17.80;40.40
326;DHT22;150;52.352;14.058;2023-06-10T02:03:17;17.80;40.60
326;DHT22;150;52.352;14.058;2023-06-10T02:05:43;17.80;40.60
326;DHT22;150;52.352;14.058;2023-06-10T02:08:32;17.80;40.30
326;DHT22;150;52.352;14.058;2023-06-10T02:11:00;17.80;40.40
326;DHT22;150;52.352;14.058;2023-06-10T02:13:27;17.90;40.30
326;DHT22;150;52.352;14.058;2023-06-10T02:15:54;17.80;40.60
326;DHT22;150;52.352;14.058;2023-06-10T02:18:20;17.90;40.80
326;DHT22;150;52.352;14.058;2023-06-10T02:20:47;17.90;40.10
326;DHT22;150;52.352;14.058;2023-06-10T02:23:14;17.80;40.50
326;DHT22;150;52.352;14.058;2023-06-10T02:25:40;17.70;41.30
326;DHT22;150;52.352;14.058;2023-06-10T02:28:08;17.60;41.70
326;DHT22;150;52.352;14.058;2023-06-10T02:30:38;17.60;42.20
326;DHT22;150;52.352;14.058;2023-06-10T02:33:05;17.50;42.20
326;DHT22;150;52.352;14.058;2023-06-10T02:35:39;17.50;42.30
326;DHT22;150;52.352;14.058;2023-06-10T02:38:05;17.50;42.70
326;DHT22;150;52.352;14.058;2023-06-10T02:40:32;17.60;42.20
326;DHT22;150;52.352;14.058;2023-06-10T02:42:59;17.60;42.50
326;DHT22;150;52.352;14.058;2023-06-10T02:45:27;17.60;41.90
326;DHT22;150;52.352;14.058;2023-06-10T02:47:53;17.60;42.00
326;DHT22;150;52.352;14.058;2023-06-10T02:50:20;17.60;42.10
326;DHT22;150;52.352;14.058;2023-06-10T02:52:48;17.70;42.10
326;DHT22;150;52.352;14.058;2023-06-10T02:55:15;17.70;41.90
326;DHT22;150;52.352;14.058;2023-06-10T02:57:42;17.70;41.80
326;DHT22;150;52.352;14.058;2023-06-10T03:00:11;17.70;42.10
326;DHT22;150;52.352;14.058;2023-06-10T03:02:40;17.70;42.30
326;DHT22;150;52.352;14.058;2023-06-10T03:05:08;17.70;42.20
326;DHT22;150;52.352;14.058;2023-06-10T03:07:36;17.70;42.50
326;DHT22;150;52.352;14.058;2023-06-10T03:10:03;17.70;42.00
326;DHT22;150;52.352;14.058;2023-06-10T03:12:30;17.70;42.50
326;DHT22;150;52.352;14.058;2023-06-10T03:14:57;17.80;42.10
326;DHT22;150;52.352;14.058;2023-06-10T03:17:26;17.90;41.60
326;DHT22;150;52.352;14.058;2023-06-10T03:19:54;17.80;41.60
326;DHT22;150;52.352;14.058;2023-06-10T03:22:21;17.90;42.20
326;DHT22;150;52.352;14.058;2023-06-10T03:24:48;17.90;41.60
326;DHT22;150;52.352;14.058;2023-06-10T03:27:16;17.90;41.70
326;DHT22;150;52.352;14.058;2023-06-10T03:29:43;17.90;41.80
326;DHT22;150;52.352;14.058;2023-06-10T03:32:10;17.90;41.50
326;DHT22;150;52.352;14.058;2023-06-10T03:34:36;17.90;42.00
326;DHT22;150;52.352;14.058;2023-06-10T03:37:05;18.00;42.50
326;DHT22;150;52.352;14.058;2023-06-10T03:39:32;18.10;42.60
326;DHT22;150;52.352;14.058;2023-06-10T03:41:59;18.40;40.20
326;DHT22;150;52.352;14.058;2023-06-10T03:44:26;18.60;39.30
326;DHT22;150;52.352;14.058;2023-06-10T03:46:53;18.70;38.70
326;DHT22;150;52.352;14.058;2023-06-10T03:49:20;18.90;39.00
326;DHT22;150;52.352;14.058;2023-06-10T03:51:47;19.40;37.10
326;DHT22;150;52.352;14.058;2023-06-10T03:54:15;19.80;34.70
326;DHT22;150;52.352;14.058;2023-06-10T03:56:41;20.10;33.30
326;DHT22;150;52.352;14.058;2023-06-10T03:59:08;20.40;32.60
326;DHT22;150;52.352;14.058;2023-06-10T04:01:35;20.60;31.60
326;DHT22;150;52.352;14.058;2023-06-10T04:04:03;20.70;30.90
326;DHT22;150;52.352;14.058;2023-06-10T04:06:29;20.80;31.00
326;DHT22;150;52.352;14.058;2023-06-10T04:08:57;21.40;31.40
326;DHT22;150;52.352;14.058;2023-06-10T04:11:25;21.80;28.60
326;DHT22;150;52.352;14.058;2023-06-10T04:13:52;22.30;27.20
326;DHT22;150;52.352;14.058;2023-06-10T04:16:19;22.70;26.30
326;DHT22;150;52.352;14.058;2023-06-10T04:18:46;23.30;25.40
326;DHT22;150;52.352;14.058;2023-06-10T04:21:13;23.90;24.00
326;DHT22;150;52.352;14.058;2023-06-10T04:23:47;24.30;23.40
326;DHT22;150;52.352;14.058;2023-06-10T04:26:23;24.80;22.10
326;DHT22;150;52.352;14.058;2023-06-10T04:28:52;25.50;21.20
326;DHT22;150;52.352;14.058;2023-06-10T04:31:19;25.90;19.80
326;DHT22;150;52.352;14.058;2023-06-10T04:33:51;25.70;19.90
326;DHT22;150;52.352;14.058;2023-06-10T04:36:23;26.20;18.90
326;DHT22;150;52.352;14.058;2023-06-10T04:38:59;26.50;17.80
326;DHT22;150;52.352;14.058;2023-06-10T04:41:32;26.70;18.20
326;DHT22;150;52.352;14.058;2023-06-10T04:44:06;27.00;17.00
326;DHT22;150;52.352;14.058;2023-06-10T04:46:41;27.00;17.00
326;DHT22;150;52.352;14.058;2023-06-10T04:49:08;27.00;17.00
326;DHT22;150;52.352;14.058;2023-06-10T04:51:42;26.70;16.90
326;DHT22;150;52.352;14.058;2023-06-10T04:54:21;26.20;18.00
326;DHT22;150;52.352;14.058;2023-06-10T04:57:02;25.70;19.00
326;DHT22;150;52.352;14.058;2023-06-10T04:59:40;25.10;20.40
326;DHT22;150;52.352;14.058;2023-06-10T05:02:14;24.70;21.10
326;DHT22;150;52.352;14.058;2023-06-10T05:04:46;23.90;22.70
326;DHT22;150;52.352;14.058;2023-06-10T05:07:26;23.50;24.00
326;DHT22;150;52.352;14.058;2023-06-10T05:09:56;23.10;24.60
326;DHT22;150;52.352;14.058;2023-06-10T05:12:26;22.60;26.00
326;DHT22;150;52.352;14.058;2023-06-10T05:15:03;22.50;26.90
326;DHT22;150;52.352;14.058;2023-06-10T05:17:34;22.40;26.60
326;DHT22;150;52.352;14.058;2023-06-10T05:20:05;22.40;27.40
326;DHT22;150;52.352;14.058;2023-06-10T05:22:34;22.40;27.40
326;DHT22;150;52.352;14.058;2023-06-10T05:25:07;22.40;27.00
326;DHT22;150;52.352;14.058;2023-06-10T05:27:35;22.30;27.50
326;DHT22;150;52.352;14.058;2023-06-10T05:30:11;22.10;27.90
326;DHT22;150;52.352;14.058;2023-06-10T05:32:52;21.90;28.40
326;DHT22;150;52.352;14.058;2023-06-10T05:35:47;22.00;29.40
326;DHT22;150;52.352;14.058;2023-06-10T05:38:25;22.00;28.30
326;DHT22;150;52.352;14.058;2023-06-10T05:41:11;22.00;28.30
326;DHT22;150;52.352;14.058;2023-06-10T05:43:47;22.10;29.10
326;DHT22;150;52.352;14.058;2023-06-10T05:46:26;21.90;28.50
326;DHT22;150;52.352;14.058;2023-06-10T05:49:09;22.00;28.90
326;DHT22;150;52.352;14.058;2023-06-10T05:51:47;22.00;28.70
326;DHT22;150;52.352;14.058;2023-06-10T05:54:17;22.10;28.60
326;DHT22;150;52.352;14.058;2023-06-10T05:56:44;22.20;28.10
326;DHT22;150;52.352;14.058;2023-06-10T05:59:14;22.20;28.30
326;DHT22;150;52.352;14.058;2023-06-10T06:01:45;22.30;28.20
326;DHT22;150;52.352;14.058;2023-06-10T06:04:17;22.50;28.40
326;DHT22;150;52.352;14.058;2023-06-10T06:06:45;22.80;27.80
326;DHT22;150;52.352;14.058;2023-06-10T06:09:27;23.00;27.20
326;DHT22;150;52.352;14.058;2023-06-10T06:12:23;23.00;25.90
326;DHT22;150;52.352;14.058;2023-06-10T06:15:00;23.00;26.20
326;DHT22;150;52.352;14.058;2023-06-10T06:17:39;23.10;25.70
326;DHT22;150;52.352;14.058;2023-06-10T06:20:15;23.00;25.70
326;DHT22;150;52.352;14.058;2023-06-10T06:22:43;22.90;26.00
326;DHT22;150;52.352;14.058;2023-06-10T06:25:10;22.90;26.00
326;DHT22;150;52.352;14.058;2023-06-10T06:27:39;22.80;25.80
326;DHT22;150;52.352;14.058;2023-06-10T06:30:26;22.70;26.30
326;DHT22;150;52.352;14.058;2023-06-10T06:32:59;22.60;26.40
326;DHT22;150;52.352;14.058;2023-06-10T06:35:26;22.60;26.60
326;DHT22;150;52.352;14.058;2023-06-10T06:40:44;22.60;26.90
326;DHT22;150;52.352;14.058;2023-06-10T06:43:32;22.60;27.30
326;DHT22;150;52.352;14.058;2023-06-10T06:46:12;22.80;27.00
326;DHT22;150;52.352;14.058;2023-06-10T06:48:50;22.90;26.60
326;DHT22;150;52.352;14.058;2023-06-10T06:51:23;22.90;25.90
326;DHT22;150;52.352;14.058;2023-06-10T06:53:51;22.90;27.10
326;DHT22;150;52.352;14.058;2023-06-10T06:56:33;23.10;26.40
326;DHT22;150;52.352;14.058;2023-06-10T06:59:08;23.30;26.10
326;DHT22;150;52.352;14.058;2023-06-10T07:01:39;23.30;25.80
326;DHT22;150;52.352;14.058;2023-06-10T07:04:07;23.50;26.30
326;DHT22;150;52.352;14.058;2023-06-10T07:06:41;23.60;24.60
326;DHT22;150;52.352;14.058;2023-06-10T07:09:08;23.70;25.40
326;DHT22;150;52.352;14.058;2023-06-10T07:11:46;23.90;24.20
326;DHT22;150;52.352;14.058;2023-06-10T07:14:22;24.10;24.40
326;DHT22;150;52.352;14.058;2023-06-10T07:16:49;24.20;24.10
326;DHT22;150;52.352;14.058;2023-06-10T07:19:27;24.20;24.40
326;DHT22;150;52.352;14.058;2023-06-10T07:22:00;24.20;23.80
326;DHT22;150;52.352;14.058;2023-06-10T07:24:32;24.30;23.90
326;DHT22;150;52.352;14.058;2023-06-10T07:27:09;24.50;24.60
326;DHT22;150;52.352;14.058;2023-06-10T07:29:36;24.40;23.40
326;DHT22;150;52.352;14.058;2023-06-10T07:32:09;24.50;23.40
326;DHT22;150;52.352;14.058;2023-06-10T07:34:49;24.40;23.40
326;DHT22;150;52.352;14.058;2023-06-10T07:37:18;24.40;23.60
326;DHT22;150;52.352;14.058;2023-06-10T07:40:01;24.20;23.60
326;DHT22;150;52.352;14.058;2023-06-10T07:42:37;24.30;23.60
326;DHT22;150;52.352;14.058;2023-06-10T07:45:07;24.40;23.90
326;DHT22;150;52.352;14.058;2023-06-10T07:48:07;24.30;23.30
326;DHT22;150;52.352;14.058;2023-06-10T07:50:44;24.20;23.50
326;DHT22;150;52.352;14.058;2023-06-10T07:53:21;24.20;23.50
326;DHT22;150;52.352;14.058;2023-06-10T07:55:51;24.20;23.10
326;DHT22;150;52.352;14.058;2023-06-10T07:58:30;24.20;23.60
326;DHT22;150;52.352;14.058;2023-06-10T08:01:24;24.30;23.40
326;DHT22;150;52.352;14.058;2023-06-10T08:04:31;24.30;22.50
326;DHT22;150;52.352;14.058;2023-06-10T08:07:55;24.50;23.10
326;DHT22;150;52.352;14.058;2023-06-10T08:10:58;24.60;23.00
326;DHT22;150;52.352;14.058;2023-06-10T08:14:22;24.90;23.10
326;DHT22;150;52.352;14.058;2023-06-10T08:17:00;25.00;20.50
326;DHT22;150;52.352;14.058;2023-06-10T08:19:36;25.30;20.30
326;DHT22;150;52.352;14.058;2023-06-10T08:22:15;25.70;19.30
326;DHT22;150;52.352;14.058;2023-06-10T08:24:44;25.80;19.70
326;DHT22;150;52.352;14.058;2023-06-10T08:27:10;25.90;18.70
326;DHT22;150;52.352;14.058;2023-06-10T08:29:37;26.00;18.10
326;DHT22;150;52.352;14.058;2023-06-10T08:32:04;26.10;16.50
326;DHT22;150;52.352;14.058;2023-06-10T08:34:33;26.30;16.60
326;DHT22;150;52.352;14.058;2023-06-10T08:37:00;26.40;17.50
326;DHT22;150;52.352;14.058;2023-06-10T08:39:27;26.70;16.30
326;DHT22;150;52.352;14.058;2023-06-10T08:42:03;26.90;15.50
326;DHT22;150;52.352;14.058;2023-06-10T08:44:35;27.00;15.20
326;DHT22;150;52.352;14.058;2023-06-10T08:47:07;27.20;13.90
326;DHT22;150;52.352;14.058;2023-06-10T08:49:40;27.30;14.10
326;DHT22;150;52.352;14.058;2023-06-10T08:52:08;27.60;12.80
326;DHT22;150;52.352;14.058;2023-06-10T08:54:38;27.60;13.20
326;DHT22;150;52.352;14.058;2023-06-10T08:57:09;27.60;12.30
326;DHT22;150;52.352;14.058;2023-06-10T08:59:36;27.70;12.00
326;DHT22;150;52.352;14.058;2023-06-10T09:02:04;27.80;12.00
326;DHT22;150;52.352;14.058;2023-06-10T09:04:31;28.00;12.60
326;DHT22;150;52.352;14.058;2023-06-10T09:06:59;28.00;12.50
326;DHT22;150;52.352;14.058;2023-06-10T09:09:28;28.10;11.30
326;DHT22;150;52.352;14.058;2023-06-10T09:11:56;28.30;10.60
326;DHT22;150;52.352;14.058;2023-06-10T09:14:25;28.60;10.60
326;DHT22;150;52.352;14.058;2023-06-10T09:16:52;28.70;9.40
326;DHT22;150;52.352;14.058;2023-06-10T09:19:23;28.70;10.20
326;DHT22;150;52.352;14.058;2023-06-10T09:21:50;28.80;10.40
326;DHT22;150;52.352;14.058;2023-06-10T09:24:16;28.90;10.20
326;DHT22;150;52.352;14.058;2023-06-10T09:26:43;29.10;10.40
326;DHT22;150;52.352;14.058;2023-06-10T09:29:11;29.40;8.90
326;DHT22;150;52.352;14.058;2023-06-10T09:31:39;29.20;9.20
326;DHT22;150;52.352;14.058;2023-06-10T09:34:08;29.10;9.40
326;DHT22;150;52.352;14.058;2023-06-10T09:36:35;29.40;10.40
326;DHT22;150;52.352;14.058;2023-06-10T09:39:03;29.50;8.80
326;DHT22;150;52.352;14.058;2023-06-10T09:41:34;29.40;8.10
326;DHT22;150;52.352;14.058;2023-06-10T09:44:01;29.20;8.30
326;DHT22;150;52.352;14.058;2023-06-10T09:46:31;29.10;8.90
326;DHT22;150;52.352;14.058;2023-06-10T09:48:59;28.90;8.50
326;DHT22;150;52.352;14.058;2023-06-10T09:51:26;29.00;7.50
326;DHT22;150;52.352;14.058;2023-06-10T09:53:53;28.80;7.70
326;DHT22;150;52.352;14.058;2023-06-10T09:56:20;28.80;8.50
326;DHT22;150;52.352;14.058;2023-06-10T09:58:53;29.00;6.70
326;DHT22;150;52.352;14.058;2023-06-10T10:01:19;29.00;6.50
326;DHT22;150;52.352;14.058;2023-06-10T10:03:50;29.00;5.70
326;DHT22;150;52.352;14.058;2023-06-10T10:06:19;29.00;6.40
326;DHT22;150;52.352;14.058;2023-06-10T10:08:47;29.10;5.60
326;DHT22;150;52.352;14.058;2023-06-10T10:11:16;29.30;5.10
326;DHT22;150;52.352;14.058;2023-06-10T10:13:44;29.30;5.10
326;DHT22;150;52.352;14.058;2023-06-10T10:16:14;29.30;6.80
326;DHT22;150;52.352;14.058;2023-06-10T10:18:46;29.40;5.80
326;DHT22;150;52.352;14.058;2023-06-10T10:21:16;29.60;5.30
326;DHT22;150;52.352;14.058;2023-06-10T10:23:53;29.90;5.30
326;DHT22;150;52.352;14.058;2023-06-10T10:26:25;30.00;6.00
326;DHT22;150;52.352;14.058;2023-06-10T10:28:59;29.80;5.90
326;DHT22;150;52.352;14.058;2023-06-10T10:31:32;29.50;5.80
326;DHT22;150;52.352;14.058;2023-06-10T10:34:01;29.40;6.70
326;DHT22;150;52.352;14.058;2023-06-10T10:36:28;29.30;6.00
326;DHT22;150;52.352;14.058;2023-06-10T10:38:56;29.20;6.70
326;DHT22;150;52.352;14.058;2023-06-10T10:41:24;29.20;6.60
326;DHT22;150;52.352;14.058;2023-06-10T10:43:53;29.10;6.70
326;DHT22;150;52.352;14.058;2023-06-10T10:46:20;29.00;6.30
326;DHT22;150;52.352;14.058;2023-06-10T10:48:52;28.80;6.20
326;DHT22;150;52.352;14.058;2023-06-10T10:51:19;28.90;5.80
326;DHT22;150;52.352;14.058;2023-06-10T10:54:11;29.00;6.40
326;DHT22;150;52.352;14.058;2023-06-10T10:56:39;29.20;7.00
326;DHT22;150;52.352;14.058;2023-06-10T10:59:06;29.00;7.70
326;DHT22;150;52.352;14.058;2023-06-10T11:01:43;29.00;7.90
326;DHT22;150;52.352;14.058;2023-06-10T11:04:12;28.80;8.00
326;DHT22;150;52.352;14.058;2023-06-10T11:06:39;28.70;8.40
326;DHT22;150;52.352;14.058;2023-06-10T11:09:28;28.60;8.40
326;DHT22;150;52.352;14.058;2023-06-10T11:11:56;28.50;10.20
326;DHT22;150;52.352;14.058;2023-06-10T11:14:27;28.60;11.00
326;DHT22;150;52.352;14.058;2023-06-10T11:16:56;28.70;10.70
326;DHT22;150;52.352;14.058;2023-06-10T11:19:33;28.80;10.70
326;DHT22;150;52.352;14.058;2023-06-10T11:22:02;29.00;10.00
326;DHT22;150;52.352;14.058;2023-06-10T11:24:30;28.90;10.00
326;DHT22;150;52.352;14.058;2023-06-10T11:27:18;28.80;10.40
326;DHT22;150;52.352;14.058;2023-06-10T11:29:56;28.70;10.40
326;DHT22;150;52.352;14.058;2023-06-10T11:32:23;28.50;10.70
326;DHT22;150;52.352;14.058;2023-06-10T11:34:53;28.60;10.90
326;DHT22;150;52.352;14.058;2023-06-10T11:37:21;28.70;10.30
326;DHT22;150;52.352;14.058;2023-06-10T11:39:51;28.90;10.20
326;DHT22;150;52.352;14.058;2023-06-10T11:42:19;29.20;11.20
326;DHT22;150;52.352;14.058;2023-06-10T11:44:48;29.50;8.80
326;DHT22;150;52.352;14.058;2023-06-10T11:47:15;29.40;8.70
326;DHT22;150;52.352;14.058;2023-06-10T11:49:42;29.20;7.80
326;DHT22;150;52.352;14.058;2023-06-10T11:52:08;29.20;7.20
326;DHT22;150;52.352;14.058;2023-06-10T11:54:36;29.30;8.40
326;DHT22;150;52.352;14.058;2023-06-10T11:57:04;29.30;7.60
326;DHT22;150;52.352;14.058;2023-06-10T11:59:33;29.30;7.30
326;DHT22;150;52.352;14.058;2023-06-10T12:02:00;29.30;8.10
326;DHT22;150;52.352;14.058;2023-06-10T12:04:27;29.20;7.90
326;DHT22;150;52.352;14.058;2023-06-10T12:06:55;29.40;7.50
326;DHT22;150;52.352;14.058;2023-06-10T12:09:23;29.30;8.20
326;DHT22;150;52.352;14.058;2023-06-10T12:11:51;29.20;8.40
326;DHT22;150;52.352;14.058;2023-06-10T12:14:53;29.40;8.80
326;DHT22;150;52.352;14.058;2023-06-10T12:17:21;29.50;8.80
326;DHT22;150;52.352;14.058;2023-06-10T12:19:49;29.60;8.40
326;DHT22;150;52.352;14.058;2023-06-10T12:22:16;29.60;8.90
326;DHT22;150;52.352;14.058;2023-06-10T12:24:45;29.60;8.90
326;DHT22;150;52.352;14.058;2023-06-10T12:27:12;29.60;8.90
326;DHT22;150;52.352;14.058;2023-06-10T12:29:39;29.60;9.60
326;DHT22;150;52.352;14.058;2023-06-10T12:32:07;29.60;9.00
326;DHT22;150;52.352;14.058;2023-06-10T12:34:37;29.70;8.80
326;DHT22;150;52.352;14.058;2023-06-10T12:37:05;29.80;8.00
326;DHT22;150;52.352;14.058;2023-06-10T12:39:32;29.60;8.90
326;DHT22;150;52.352;14.058;2023-06-10T12:41:59;29.50;8.80
326;DHT22;150;52.352;14.058;2023-06-10T12:44:30;29.40;8.80
326;DHT22;150;52.352;14.058;2023-06-10T12:46:57;29.20;8.70
326;DHT22;150;52.352;14.058;2023-06-10T12:49:25;29.10;9.00
326;DHT22;150;52.352;14.058;2023-06-10T12:51:52;29.10;8.60
326;DHT22;150;52.352;14.058;2023-06-10T12:54:19;29.20;9.10
326;DHT22;150;52.352;14.058;2023-06-10T12:56:45;29.40;8.80
326;DHT22;150;52.352;14.058;2023-06-10T12:59:12;29.60;9.30
326;DHT22;150;52.352;14.058;2023-06-10T13:01:39;29.70;8.50
326;DHT22;150;52.352;14.058;2023-06-10T13:04:06;29.50;8.80
326;DHT22;150;52.352;14.058;2023-06-10T13:06:34;29.50;9.70
326;DHT22;150;52.352;14.058;2023-06-10T13:09:05;29.50;8.80
326;DHT22;150;52.352;14.058;2023-06-10T13:11:33;29.40;7.80
326;DHT22;150;52.352;14.058;2023-06-10T13:14:00;29.30;8.70
326;DHT22;150;52.352;14.058;2023-06-10T13:16:27;29.20;8.70
326;DHT22;150;52.352;14.058;2023-06-10T13:18:56;29.10;8.60
326;DHT22;150;52.352;14.058;2023-06-10T13:21:23;29.00;8.30
326;DHT22;150;52.352;14.058;2023-06-10T13:23:52;29.10;8.60
326;DHT22;150;52.352;14.058;2023-06-10T13:26:18;29.40;8.80
326;DHT22;150;52.352;14.058;2023-06-10T13:28:45;29.60;8.50
326;DHT22;150;52.352;14.058;2023-06-10T13:31:12;29.80;7.60
326;DHT22;150;52.352;14.058;2023-06-10T13:33:38;29.90;7.10
326;DHT22;150;52.352;14.058;2023-06-10T13:36:06;29.90;7.20
326;DHT22;150;52.352;14.058;2023-06-10T13:38:32;30.00;7.70
326;DHT22;150;52.352;14.058;2023-06-10T13:41:00;29.80;5.90
326;DHT22;150;52.352;14.058;2023-06-10T13:43:27;29.50;6.00
326;DHT22;150;52.352;14.058;2023-06-10T13:45:54;29.50;6.60
326;DHT22;150;52.352;14.058;2023-06-10T13:48:21;29.70;6.00
326;DHT22;150;52.352;14.058;2023-06-10T13:50:47;29.90;6.50
326;DHT22;150;52.352;14.058;2023-06-10T13:53:14;29.90;4.20
326;DHT22;150;52.352;14.058;2023-06-10T13:55:41;29.70;4.80
326;DHT22;150;52.352;14.058;2023-06-10T13:58:09;29.50;5.50
326;DHT22;150;52.352;14.058;2023-06-10T14:00:35;29.60;5.90
326;DHT22;150;52.352;14.058;2023-06-10T14:03:02;29.80;5.40
326;DHT22;150;52.352;14.058;2023-06-10T14:05:29;29.80;4.20
326;DHT22;150;52.352;14.058;2023-06-10T14:07:56;29.80;3.70
326;DHT22;150;52.352;14.058;2023-06-10T14:10:22;29.80;3.30
326;DHT22;150;52.352;14.058;2023-06-10T14:12:49;29.90;2.60
326;DHT22;150;52.352;14.058;2023-06-10T14:15:18;29.90;3.00
326;DHT22;150;52.352;14.058;2023-06-10T14:17:44;29.70;1.70
326;DHT22;150;52.352;14.058;2023-06-10T14:20:11;29.90;2.00
326;DHT22;150;52.352;14.058;2023-06-10T14:28:56;30.40;1.60
326;DHT22;150;52.352;14.058;2023-06-10T15:28:47;29.90;1.00
326;DHT22;150;52.352;14.058;2023-06-10T15:29:49;29.80;1.00
326;DHT22;150;52.352;14.058;2023-06-10T15:32:40;29.70;1.00
326;DHT22;150;52.352;14.058;2023-06-10T15:40:15;29.70;1.00
326;DHT22;150;52.352;14.058;2023-06-10T15:52:03;29.60;1.00
326;DHT22;150;52.352;14.058;2023-06-10T15:54:59;29.60;1.00
326;DHT22;150;52.352;14.058;2023-06-10T15:57:36;29.50;1.00
326;DHT22;150;52.352;14.058;2023-06-10T16:00:16;29.50;1.00
326;DHT22;150;52.352;14.058;2023-06-10T16:03:05;29.40;1.00
326;DHT22;150;52.352;14.058;2023-06-10T16:06:44;29.40;1.00
326;DHT22;150;52.352;14.058;2023-06-10T16:46:51;29.00;1.00
326;DHT22;150;52.352;14.058;2023-06-10T16:50:16;29.00;1.00
326;DHT22;150;52.352;14.058;2023-06-10T16:52:43;29.10;1.00
326;DHT22;150;52.352;14.058;2023-06-10T16:55:10;29.10;1.00
326;DHT22;150;52.352;14.058;2023-06-10T16:57:38;29.10;1.00
326;DHT22;150;52.352;14.058;2023-06-10T17:00:11;29.00;1.00
326;DHT22;150;52.352;14.058;2023-06-10T17:03:02;29.00;1.00
326;DHT22;150;52.352;14.058;2023-06-10T17:05:30;29.10;1.00
326;DHT22;150;52.352;14.058;2023-06-10T17:07:57;29.00;1.00
326;DHT22;150;52.352;14.058;2023-06-10T17:10:28;28.90;1.00
326;DHT22;150;52.352;14.058;2023-06-10T17:16:01;28.80;1.00
326;DHT22;150;52.352;14.058;2023-06-10T17:18:41;28.80;1.00
326;DHT22;150;52.352;14.058;2023-06-10T17:21:16;28.80;1.00
326;DHT22;150;52.352;14.058;2023-06-10T17:23:43;28.70;1.00
326;DHT22;150;52.352;14.058;2023-06-10T17:26:22;28.60;1.00
326;DHT22;150;52.352;14.058;2023-06-10T17:29:02;28.50;1.20
326;DHT22;150;52.352;14.058;2023-06-10T17:31:31;28.50;1.00
326;DHT22;150;52.352;14.058;2023-06-10T17:34:24;28.40;1.00
326;DHT22;150;52.352;14.058;2023-06-10T17:38:29;28.30;1.00
326;DHT22;150;52.352;14.058;2023-06-10T17:40:23;28.30;1.30
326;DHT22;150;52.352;14.058;2023-06-10T17:46:20;28.40;2.70
326;DHT22;150;52.352;14.058;2023-06-10T17:49:08;28.10;3.30
326;DHT22;150;52.352;14.058;2023-06-10T18:00:11;27.70;4.10
326;DHT22;150;52.352;14.058;2023-06-10T18:03:03;27.70;2.70
326;DHT22;150;52.352;14.058;2023-06-10T18:06:35;27.60;3.60
326;DHT22;150;52.352;14.058;2023-06-10T18:09:30;27.60;3.80
326;DHT22;150;52.352;14.058;2023-06-10T18:12:45;27.50;3.00
326;DHT22;150;52.352;14.058;2023-06-10T18:19:40;27.40;3.90
326;DHT22;150;52.352;14.058;2023-06-10T18:22:47;27.30;4.10
326;DHT22;150;52.352;14.058;2023-06-10T18:25:43;27.60;4.60
326;DHT22;150;52.352;14.058;2023-06-10T18:28:19;27.20;4.80
326;DHT22;150;52.352;14.058;2023-06-10T18:30:48;27.20;4.80
326;DHT22;150;52.352;14.058;2023-06-10T18:33:39;27.10;5.30
326;DHT22;150;52.352;14.058;2023-06-10T18:36:07;27.10;5.00
326;DHT22;150;52.352;14.058;2023-06-10T18:38:38;27.10;5.20
326;DHT22;150;52.352;14.058;2023-06-10T18:41:08;27.00;5.40
326;DHT22;150;52.352;14.058;2023-06-10T18:43:48;27.00;5.40
326;DHT22;150;52.352;14.058;2023-06-10T18:46:23;26.90;5.40
326;DHT22;150;52.352;14.058;2023-06-10T18:49:00;26.90;5.80
326;DHT22;150;52.352;14.058;2023-06-10T18:51:32;26.80;5.90
326;DHT22;150;52.352;14.058;2023-06-10T18:54:03;26.80;5.90
326;DHT22;150;52.352;14.058;2023-06-10T18:56:39;26.80;5.90
326;DHT22;150;52.352;14.058;2023-06-10T18:59:13;26.80;6.20
326;DHT22;150;52.352;14.058;2023-06-10T19:01:52;26.80;7.00
326;DHT22;150;52.352;14.058;2023-06-10T19:04:24;26.70;6.20
326;DHT22;150;52.352;14.058;2023-06-10T19:07:14;26.70;6.80
326;DHT22;150;52.352;14.058;2023-06-10T19:09:47;26.70;7.00
326;DHT22;150;52.352;14.058;2023-06-10T19:12:18;26.60;6.40
326;DHT22;150;52.352;14.058;2023-06-10T19:14:56;26.50;7.30
326;DHT22;150;52.352;14.058;2023-06-10T19:17:26;26.50;7.30
326;DHT22;150;52.352;14.058;2023-06-10T19:20:01;26.40;7.30